Aviation Digital Data Service (ADDS)

Output produced by METARs form (1107 UTC 19 January 2019)
found at http://www.aviationweather.gov/metar/data/
 
KBOI 191053Z 12012KT 6SM -RA OVC026 02/ A3029 RMK AO2 SLP266 P0011 T0022 $
KBOI 190702Z 1907/2006 13015G24KT 4SM RA BR SCT010 OVC020 
     FM191000 13012G20KT P6SM -RA SCT010 OVC020 
     FM191600 13008KT 4SM RA BR SCT015 OVC030 
     FM192200 13011KT P6SM -RA SCT020 OVC035
       
K65S 191050Z AUTO 00000KT 5SM -SN BKN007 OVC021 00/00 A3005 RMK AO2 P0003
KBYI 191053Z AUTO 20011KT 10SM OVC049 01/M03 A3030 RMK AO2 SLP273 T00111033
KBYI 190546Z 1906/2006 20006KT P6SM FEW040 SCT100 BKN140 
     FM191000 18006KT 6SM -SN BR SCT015 BKN025 OVC060 
     FM191200 20006KT 4SM -SN BR BKN015 OVC060 
     FM191900 18015KT 6SM -RA BR OVC008 
     FM200100 17006KT 4SM -RA BR SCT008 OVC015
       
KEUL 191056Z AUTO 10014KT 10SM -RA OVC029 02/01 A3029 RMK AO2 SLP270 P0010 T00220011 FZRANO
KEUL 190520Z 1906/2006 12009KT P6SM -RA OVC040 
     FM190700 13017KT 6SM -RA OVC025 
     FM191500 14015KT 4SM -RA BR OVC010
       
KLLJ 191055Z AUTO 32003KT 10SM OVC080 M03/M07 A3021 RMK AO2 SLP247 T10281067
KCOE 191056Z AUTO 00000KT 7SM UP BKN005 OVC013 01/00 A3005 RMK AO2 UPE02B34RAB02E23SNB23E34 CIG 004V009 SLP212 P0002 T00060000 FZRANO
KCOE 190649Z 1907/2006 17003KT P6SM SCT030 BKN060 
     FM190800 08008KT 5SM -RA OVC015 
     FM191000 06007KT 4SM -RA OVC013 WS020/22030KT 
     FM191700 22012KT P6SM OVC018 
     FM192100 22009KT P6SM OVC030 
     FM200400 21005KT P6SM OVC016
       
KDIJ 191056Z AUTO 16007KT 10SM SCT032 BKN080 OVC100 M04/M07 A3030 RMK AO2 SLP306 T10441072
KDIJ 191032Z 1911/2006 16006KT P6SM OVC035 
     FM191300 16006KT 2SM -SN BR SCT004 OVC010 
     FM191800 17010KT 4SM -SN SCT004 OVC008 
     FM200000 18010KT 1SM -SN VV008 AMD LTD TO CLD VIS AND WIND
       
KGIC 191055Z AUTO 02008KT 10SM BKN022 OVC038 01/01 A3008 RMK AO1
KSUN 191055Z AUTO 32005KT 5SM -SN SCT015 BKN027 OVC033 M03/M05 A3031 RMK AO2
KSUN 190951Z 1910/2012 24008KT 4SM -SN SCT008 OVC012 
     TEMPO 1910/1912 2SM -SN 
     FM192000 VRB04KT 2SM -SN OVC008 
     FM200000 24008KT 4SM -SN OVC008 
     FM200200 24006KT 1SM -SN VV006 AMD LTD TO CLD VIS AND WIND TIL 191300
       
KIDA 191053Z AUTO 20007KT 10SM OVC070 M01/M05 A3031 RMK AO2 SLP291 T10111050
KIDA 191008Z 1910/2006 19015KT P6SM VCSH BKN090 
     FM191600 21009KT 2SM -SN BR OVC010 
     FM191900 24010KT 4SM -RASN BR OVC008 
     FM200200 19015KT 2SM -SN BR VV004
       
KJER 191053Z AUTO 09003KT 1 3/4SM -SN BR OVC021 01/M02 A3032 RMK AO2 SNB05 SLP283 P0000 T00061017
KJER 191000Z 1910/2006 05007KT 2SM -SN BR OVC010 
     TEMPO 1910/1914 3/4SM -SN BR OVC007 
     FM191500 05010KT 5SM -RA BR OVC009 
     FM192000 05007KT P6SM -RA OVC015 
     FM200300 07009KT P6SM BKN050
       
KLWS 191056Z AUTO 14016KT 10SM -RA OVC065 06/02 A3007 RMK AO2 RAE0959B20 SLP189 P0000 T00560022
KLWS 190647Z 1907/2006 12008KT P6SM -RA OVC025 
     FM191300 21008KT P6SM BKN060 OVC250 
     FM200400 VRB03KT P6SM FEW005
       
KMYL 191051Z AUTO 15004KT 1/2SM SN FZFG VV007 M02/M03 A3020 RMK AO2 SLP253 P0005 T10171028
KMYL 190520Z 1906/2006 16006KT 4SM -SN BR OVC025 
     FM190700 15005KT 2SM -SN BR BKN015 OVC025 
     FM190900 VRB03KT 1/2SM SN FG VV002 
     FM191200 16005KT 3SM -SN BR OVC009
       
KMAN 191055Z AUTO 13009G14KT 7SM 02/02 A3029 RMK A01 P0010
K1U7 191055Z AUTO 05005KT 1/2SM FZFG BKN032 OVC095 M12/M13 A3031 RMK A01
KPIH 191053Z AUTO 21008G18KT 10SM OVC090 01/M04 A3030 RMK AO2 SLP281 T00111044
KPIH 190520Z 1906/2006 19015KT P6SM SCT035 BKN130 BKN180 
     FM190900 20015KT P6SM VCSH SCT035 BKN100 OVC130 
     FM191200 18015KT 4SM -SN BR SCT008 OVC015 
     FM191500 18015KT 6SM -RASN BR SCT004 OVC008 
     FM191800 18015G25KT 6SM -RA BR SCT004 OVC008
       
KRXE 191053Z AUTO 21007KT 10SM OVC075 M01/M06 A3030 RMK AO2 SLP286 T10111061
KSMN 191056Z AUTO 00000KT 10SM FEW050 OVC060 M02/M04 A3022 RMK AO2 SLP263 T10171044 FZRANO
KSMN 190520Z 1906/2006 VRB04KT P6SM SCT050 BKN100 
     FM190800 00000KT P6SM VCSH OVC050 
     FM191100 VRB03KT 3SM -SN BKN030 OVC050 
     FM191600 VRB02KT P6SM VCSH OVC050 
     FM192000 25005KT 5SM -SHSN OVC030
       
KSZT 191055Z AUTO 00000KT 10SM -RA SCT024 BKN036 OVC047 00/00 A3006 RMK AO2
KTWF 191103Z AUTO 19006KT 4SM -SN BR OVC031 01/M01 A3030 RMK AO2 P0000 T00061006
KTWF 190955Z 1910/2006 18010KT 4SM -SN BR BKN015 OVC025 
     TEMPO 1910/1912 2SM -SN BR 
     FM191300 19008KT 6SM -RA BR OVC015 
     FM192000 19009KT P6SM -RA OVC035 
     FM200000 18008KT P6SM BKN050